Time;durP1;ratioP1;P1;durP2;ratioP2;P2;SDS_P1;SDS_P2;PMS_P1;PMS_P2;Temp;Humidity;BMP_temperature;BMP_pressure;BME280_temperature;BME280_humidity;BME280_pressure;Samples;Min_cycle;Max_cycle;Signal;HPM_P1;HPM_P2
2021/07/30 00:00:30;;;;;;;8.73;4.68;;;;;;;14.96;91.19;97629.47;5027210;28;20037;-58
2021/07/30 00:02:55;;;;;;;7.05;4.38;;;;;;;15.59;89.33;97639.31;5027483;28;20164;-59
2021/07/30 00:05:20;;;;;;;6.97;4.47;;;;;;;14.92;90.06;97638.50;5027288;28;20376;-59
2021/07/30 00:07:46;;;;;;;8.05;4.07;;;;;;;15.31;87.50;97636.81;5024566;28;20124;-58
2021/07/30 00:10:11;;;;;;;6.80;4.80;;;;;;;14.74;90.61;97640.50;5027046;28;20043;-58
2021/07/30 00:12:37;;;;;;;6.85;4.90;;;;;;;14.82;91.44;97639.09;5024979;28;20029;-58
2021/07/30 00:15:06;;;;;;;7.50;4.97;;;;;;;14.44;92.30;97638.84;5026899;28;20036;-58
2021/07/30 00:17:33;;;;;;;8.48;4.85;;;;;;;14.52;92.13;97635.75;5027308;28;20665;-59
2021/07/30 00:19:58;;;;;;;9.18;5.40;;;;;;;14.18;93.68;97643.09;5025909;28;20091;-59
2021/07/30 00:22:24;;;;;;;9.00;5.30;;;;;;;14.25;93.04;97644.41;5025042;28;20032;-58
2021/07/30 00:24:49;;;;;;;10.27;5.30;;;;;;;14.30;93.58;97644.09;5026832;28;20124;-58
2021/07/30 00:27:14;;;;;;;9.23;4.93;;;;;;;14.37;92.35;97643.66;5026669;28;20124;-58
2021/07/30 00:29:40;;;;;;;8.07;4.60;;;;;;;14.30;93.90;97646.72;5027844;28;20028;-59
2021/07/30 00:32:06;;;;;;;9.68;5.47;;;;;;;14.05;93.54;97649.06;5027455;28;20037;-58
2021/07/30 00:34:32;;;;;;;12.27;5.63;;;;;;;13.82;95.09;97644.38;5029464;28;20737;-58
2021/07/30 00:36:57;;;;;;;11.70;5.57;;;;;;;13.77;95.91;97656.94;5031879;28;20071;-57
2021/07/30 00:39:22;;;;;;;6.80;4.60;;;;;;;14.18;94.43;97656.22;5030104;28;20026;-58
2021/07/30 00:41:48;;;;;;;6.03;3.65;;;;;;;14.68;92.58;97654.03;5028276;28;20044;-57
2021/07/30 00:44:13;;;;;;;6.53;4.30;;;;;;;14.54;92.07;97660.09;5028034;28;20032;-58
2021/07/30 00:46:39;;;;;;;6.82;4.82;;;;;;;14.31;90.95;97665.00;5028700;28;20041;-58
2021/07/30 00:49:05;;;;;;;7.93;5.15;;;;;;;13.86;93.33;97659.00;5028847;28;20025;-59
2021/07/30 00:51:31;;;;;;;9.48;5.75;;;;;;;13.44;96.08;97663.22;5029257;28;20041;-58
2021/07/30 00:53:57;;;;;;;8.80;5.13;;;;;;;13.47;96.29;97656.03;5029343;28;20032;-58
2021/07/30 00:56:22;;;;;;;10.95;5.20;;;;;;;13.53;95.76;97661.81;5031292;28;20056;-58
2021/07/30 00:58:48;;;;;;;7.15;4.43;;;;;;;13.92;94.62;97663.88;5046062;28;20032;-58
2021/07/30 01:01:13;;;;;;;6.18;4.53;;;;;;;13.96;92.72;97660.13;5028784;28;20538;-59
2021/07/30 01:03:39;;;;;;;7.65;4.80;;;;;;;13.83;93.92;97659.19;5029710;28;20025;-58
2021/07/30 01:06:05;;;;;;;6.20;4.53;;;;;;;14.18;93.14;97653.59;5026839;28;20067;-59
2021/07/30 01:08:30;;;;;;;8.85;5.35;;;;;;;13.84;93.83;97666.09;5026960;28;20045;-57
2021/07/30 01:10:56;;;;;;;8.30;5.15;;;;;;;13.86;94.01;97653.75;5027992;28;20052;-58
2021/07/30 01:13:21;;;;;;;7.90;5.30;;;;;;;13.77;94.29;97654.31;5028552;28;20375;-58
2021/07/30 01:15:49;;;;;;;7.60;5.00;;;;;;;13.86;93.37;97648.53;5027931;28;20407;-58
2021/07/30 01:18:14;;;;;;;6.30;4.50;;;;;;;13.84;94.95;97655.59;5030611;28;20029;-58
2021/07/30 01:20:43;;;;;;;9.40;4.78;;;;;;;13.81;93.83;97645.31;5030118;28;20060;-60
2021/07/30 01:23:10;;;;;;;7.95;4.78;;;;;;;13.85;93.22;97650.28;5028201;28;20029;-57
2021/07/30 01:25:36;;;;;;;7.90;4.97;;;;;;;13.63;94.61;97650.72;5029128;28;20570;-59
2021/07/30 01:28:01;;;;;;;8.35;5.07;;;;;;;13.42;95.85;97652.81;5028318;28;20035;-58
2021/07/30 01:30:27;;;;;;;7.13;5.10;;;;;;;13.56;94.37;97646.75;5028299;28;20049;-58
2021/07/30 01:32:52;;;;;;;6.38;4.30;;;;;;;13.94;94.39;97646.25;5027636;28;20467;-58
2021/07/30 01:35:18;;;;;;;8.45;4.80;;;;;;;14.28;91.61;97641.59;5030129;28;20045;-58
2021/07/30 01:37:43;;;;;;;10.07;4.95;;;;;;;13.92;93.12;97636.81;5027492;28;20029;-57
2021/07/30 01:40:09;;;;;;;6.90;4.20;;;;;;;14.43;92.45;97642.44;5029935;28;20732;-57
2021/07/30 01:42:36;;;;;;;9.63;4.68;;;;;;;14.12;91.46;97638.22;5026515;28;20562;-58
2021/07/30 01:45:01;;;;;;;7.57;4.72;;;;;;;14.36;91.19;97641.97;5027182;28;20037;-58
2021/07/30 01:47:27;;;;;;;5.80;4.10;;;;;;;14.15;93.30;97640.66;5029569;28;20970;-58
2021/07/30 01:49:53;;;;;;;6.30;4.68;;;;;;;13.84;91.82;97642.50;5026756;28;20041;-59
2021/07/30 01:52:18;;;;;;;8.02;4.63;;;;;;;13.55;92.35;97639.84;5025481;28;20025;-58
2021/07/30 01:54:45;;;;;;;5.65;4.18;;;;;;;13.69;94.68;97647.75;5030014;28;20051;-59
2021/07/30 01:57:11;;;;;;;6.65;4.55;;;;;;;13.82;91.60;97645.25;5029725;28;20029;-58
2021/07/30 01:59:36;;;;;;;6.88;4.75;;;;;;;13.32;93.89;97632.47;5028593;28;20418;-58
2021/07/30 02:02:02;;;;;;;9.60;5.50;;;;;;;13.45;93.29;97649.16;5028300;28;20087;-58
2021/07/30 02:04:28;;;;;;;7.55;4.80;;;;;;;13.59;92.83;97657.06;5026848;28;20036;-58
2021/07/30 02:06:53;;;;;;;7.07;5.03;;;;;;;13.50;92.16;97649.75;5026906;28;20041;-58
2021/07/30 02:09:18;;;;;;;9.88;5.57;;;;;;;12.96;95.99;97649.31;5025799;28;20025;-59
2021/07/30 02:11:50;;;;;;;8.00;5.30;;;;;;;13.40;94.00;97659.06;5026937;28;20049;-58
2021/07/30 02:14:16;;;;;;;6.55;4.57;;;;;;;13.43;95.33;97651.88;5025521;28;20068;-59
2021/07/30 02:16:49;;;;;;;8.27;5.32;;;;;;;13.06;96.03;97648.72;5027860;28;20037;-58
2021/07/30 02:19:19;;;;;;;8.10;4.90;;;;;;;13.14;96.31;97645.69;5026702;28;20053;-58
2021/07/30 02:21:49;;;;;;;8.68;5.10;;;;;;;12.99;96.41;97654.38;5027204;28;20791;-57
2021/07/30 02:24:14;;;;;;;8.68;5.32;;;;;;;12.94;97.98;97646.81;5027165;28;20061;-58
2021/07/30 02:26:40;;;;;;;8.52;5.00;;;;;;;12.96;96.64;97652.81;5025661;28;20076;-58
2021/07/30 02:29:05;;;;;;;6.90;4.90;;;;;;;12.91;96.78;97654.81;5029087;28;20016;-58
2021/07/30 02:31:31;;;;;;;8.65;5.22;;;;;;;12.99;96.15;97659.63;5028287;28;20053;-58
2021/07/30 02:33:56;;;;;;;7.60;4.82;;;;;;;13.26;95.40;97660.69;5028323;28;20025;-57
2021/07/30 02:36:22;;;;;;;7.60;5.13;;;;;;;13.27;94.32;97654.53;5025527;28;20604;-58
2021/07/30 02:38:47;;;;;;;7.10;4.28;;;;;;;13.08;95.28;97646.00;5027564;28;20096;-58
2021/07/30 02:41:13;;;;;;;5.82;4.20;;;;;;;13.42;94.21;97647.59;5026153;28;20033;-59
2021/07/30 02:43:39;;;;;;;8.48;5.10;;;;;;;13.27;93.59;97651.03;5026792;28;20083;-59
2021/07/30 02:46:04;;;;;;;9.48;5.25;;;;;;;12.99;96.07;97654.38;5026961;28;20629;-59
2021/07/30 02:48:30;;;;;;;8.43;5.30;;;;;;;12.80;97.55;97659.81;5026541;28;20061;-59
2021/07/30 02:50:55;;;;;;;11.07;5.47;;;;;;;12.85;97.86;97656.00;5026023;28;20118;-58
2021/07/30 02:53:20;;;;;;;8.45;5.13;;;;;;;12.82;97.42;97657.97;5027841;28;20112;-58
2021/07/30 02:55:46;;;;;;;8.60;5.95;;;;;;;12.65;98.45;97645.81;5040306;28;20037;-60
2021/07/30 02:58:14;;;;;;;11.98;5.43;;;;;;;12.63;97.62;97650.28;5026958;28;20032;-61
2021/07/30 03:00:41;;;;;;;5.95;4.28;;;;;;;13.10;95.22;97655.50;5026402;28;21453;-59
2021/07/30 03:03:06;;;;;;;7.63;5.10;;;;;;;12.60;96.60;97653.91;5027638;28;20028;-60
2021/07/30 03:05:32;;;;;;;11.07;5.47;;;;;;;12.50;97.74;97650.94;5027016;28;20037;-59
2021/07/30 03:07:57;;;;;;;8.10;5.63;;;;;;;12.57;97.18;97646.22;5024086;28;20046;-58
2021/07/30 03:10:23;;;;;;;8.30;5.10;;;;;;;12.93;94.55;97645.94;5027426;28;20124;-59
2021/07/30 03:12:48;;;;;;;10.15;5.82;;;;;;;12.49;97.06;97644.00;5023819;28;20028;-60
2021/07/30 03:15:14;;;;;;;9.75;5.60;;;;;;;12.45;97.36;97645.13;5025336;28;20139;-59
2021/07/30 03:17:39;;;;;;;10.65;5.88;;;;;;;12.49;97.88;97644.00;5023899;28;20075;-59
2021/07/30 03:20:05;;;;;;;9.02;5.03;;;;;;;12.61;97.45;97646.88;5028573;28;20402;-60
2021/07/30 03:22:34;;;;;;;9.98;5.38;;;;;;;12.53;97.34;97639.47;5026997;28;20021;-59
2021/07/30 03:25:00;;;;;;;12.25;5.32;;;;;;;12.51;97.47;97631.69;5025435;28;20043;-59
2021/07/30 03:27:26;;;;;;;7.68;5.10;;;;;;;12.62;96.87;97638.97;5027788;28;20045;-59
2021/07/30 03:29:51;;;;;;;9.57;5.40;;;;;;;12.50;97.51;97632.63;5025594;28;20022;-59
2021/07/30 03:32:18;;;;;;;8.68;4.93;;;;;;;12.39;97.45;97631.53;5029000;28;20079;-59
2021/07/30 03:34:45;;;;;;;8.05;4.93;;;;;;;12.38;97.63;97629.84;5025758;28;20797;-59
2021/07/30 03:37:11;;;;;;;9.05;5.57;;;;;;;12.38;97.37;97628.06;5025486;28;20037;-59
2021/07/30 03:39:36;;;;;;;8.57;5.63;;;;;;;12.48;96.82;97621.41;5026347;28;20531;-59
2021/07/30 03:42:01;;;;;;;8.77;5.15;;;;;;;12.46;97.37;97628.50;5026009;28;20064;-59
2021/07/30 03:44:27;;;;;;;7.75;5.32;;;;;;;12.59;96.38;97625.19;5027125;28;20041;-59
2021/07/30 03:46:52;;;;;;;8.93;5.70;;;;;;;12.47;96.39;97619.72;5025155;28;20175;-59
2021/07/30 03:49:17;;;;;;;7.88;5.43;;;;;;;12.65;95.63;97624.88;5025923;28;20498;-59
2021/07/30 03:51:43;;;;;;;9.45;5.40;;;;;;;12.59;96.13;97619.97;5025865;28;20117;-59
2021/07/30 03:54:09;;;;;;;9.05;5.60;;;;;;;12.34;97.12;97623.94;5026192;28;20104;-58
2021/07/30 03:56:38;;;;;;;8.02;5.32;;;;;;;12.31;97.71;97624.09;5026298;28;20087;-59
2021/07/30 03:59:04;;;;;;;6.53;4.93;;;;;;;12.63;95.80;97624.13;5025871;28;20222;-58
2021/07/30 04:01:29;;;;;;;8.43;5.22;;;;;;;12.56;95.03;97622.78;5025856;28;20162;-59
2021/07/30 04:03:54;;;;;;;7.78;4.82;;;;;;;12.83;94.98;97612.50;5025714;28;20494;-59
2021/07/30 04:06:20;;;;;;;8.27;5.13;;;;;;;12.77;94.71;97626.78;5030274;28;20208;-58
2021/07/30 04:08:45;;;;;;;8.23;5.53;;;;;;;12.72;94.54;97623.63;5030060;28;20040;-59
2021/07/30 04:11:11;;;;;;;6.03;4.35;;;;;;;12.98;95.46;97611.66;5027970;28;20200;-59
2021/07/30 04:13:36;;;;;;;8.50;5.38;;;;;;;12.89;93.66;97620.03;5028865;28;20525;-60
2021/07/30 04:16:06;;;;;;;6.93;5.13;;;;;;;13.06;93.25;97619.09;5028309;28;20056;-59
2021/07/30 04:18:32;;;;;;;8.13;4.63;;;;;;;13.74;91.29;97623.03;5027982;28;20033;-58
2021/07/30 04:20:57;;;;;;;9.38;4.95;;;;;;;14.20;93.40;97625.47;5030630;28;20047;-59
2021/07/30 04:23:23;;;;;;;7.13;4.72;;;;;;;14.25;86.62;97620.78;5028402;28;20037;-58
2021/07/30 04:25:49;;;;;;;8.00;4.90;;;;;;;13.71;89.17;97625.81;5029930;28;20037;-60
2021/07/30 04:28:14;;;;;;;7.65;4.93;;;;;;;14.31;89.86;97623.03;5029845;28;20072;-60
2021/07/30 04:30:40;;;;;;;6.75;4.50;;;;;;;14.07;87.61;97620.13;5037291;28;20086;-58
2021/07/30 04:33:07;;;;;;;8.55;5.18;;;;;;;14.01;87.36;97631.03;5027798;28;20615;-59
2021/07/30 04:35:34;;;;;;;6.53;5.00;;;;;;;14.17;87.71;97626.53;5027972;28;20037;-60
2021/07/30 04:38:00;;;;;;;7.20;4.68;;;;;;;14.08;87.63;97627.91;5029567;28;20590;-59
2021/07/30 04:40:25;;;;;;;7.22;5.00;;;;;;;13.96;87.37;97633.91;5029777;28;20549;-60
2021/07/30 04:42:51;;;;;;;8.82;4.90;;;;;;;14.11;87.36;97626.88;5028494;28;20064;-60
2021/07/30 04:45:16;;;;;;;7.13;4.40;;;;;;;14.72;85.43;97624.00;5028582;28;20048;-58
2021/07/30 04:47:41;;;;;;;8.80;5.47;;;;;;;14.27;85.30;97626.78;5030808;28;20025;-59
2021/07/30 04:50:08;;;;;;;7.60;5.00;;;;;;;14.49;85.55;97621.03;5029898;28;20022;-58
2021/07/30 04:52:33;;;;;;;9.10;4.55;;;;;;;14.67;84.91;97621.69;5028450;28;20033;-59
2021/07/30 04:54:58;;;;;;;7.32;4.85;;;;;;;14.28;87.10;97612.75;5030619;28;20018;-59
2021/07/30 04:57:24;;;;;;;6.43;4.70;;;;;;;14.66;84.52;97625.25;5029229;28;20037;-60
2021/07/30 04:59:49;;;;;;;7.43;4.70;;;;;;;14.81;83.74;97619.03;5030552;28;20109;-60
2021/07/30 05:02:14;;;;;;;7.68;3.83;;;;;;;15.03;83.40;97621.13;5023709;28;20086;-60
2021/07/30 05:04:40;;;;;;;8.10;4.38;;;;;;;14.94;83.37;97620.84;5029675;28;20032;-59
2021/07/30 05:07:05;;;;;;;6.32;4.63;;;;;;;15.00;84.05;97620.47;5033235;28;20045;-60
2021/07/30 05:09:31;;;;;;;8.65;4.70;;;;;;;15.18;83.14;97614.00;5033138;28;20053;-61
2021/07/30 05:11:56;;;;;;;7.10;4.85;;;;;;;15.62;82.98;97617.22;5030955;28;20029;-60
2021/07/30 05:14:22;;;;;;;7.43;4.15;;;;;;;15.88;82.17;97615.50;5033051;28;20028;-58
2021/07/30 05:16:47;;;;;;;5.53;3.67;;;;;;;15.93;79.05;97621.25;5031394;28;20041;-60
2021/07/30 05:19:12;;;;;;;5.90;3.78;;;;;;;16.46;78.22;97607.94;5034230;28;20075;-59
2021/07/30 05:21:38;;;;;;;9.75;4.97;;;;;;;15.70;80.87;97614.09;5029851;28;20037;-60
2021/07/30 05:24:04;;;;;;;7.78;4.60;;;;;;;15.53;81.72;97608.19;5032228;28;20025;-59
2021/07/30 05:26:29;;;;;;;9.50;4.70;;;;;;;15.94;79.43;97612.44;5029714;28;20065;-59
2021/07/30 05:28:55;;;;;;;6.38;4.30;;;;;;;16.14;79.44;97618.13;5029988;28;20120;-60
2021/07/30 05:31:20;;;;;;;8.48;4.70;;;;;;;16.37;78.67;97614.69;5029113;28;20160;-60
2021/07/30 05:33:47;;;;;;;9.95;4.82;;;;;;;16.09;78.97;97614.97;5030540;28;20469;-61
2021/07/30 05:36:17;;;;;;;7.63;4.53;;;;;;;16.60;77.79;97619.25;5033233;28;20495;-59
2021/07/30 05:38:43;;;;;;;9.75;4.70;;;;;;;16.50;78.28;97608.56;5032345;28;20025;-58
2021/07/30 05:41:13;;;;;;;7.53;4.70;;;;;;;16.73;76.71;97614.81;5031939;28;20037;-59
2021/07/30 05:43:39;;;;;;;6.65;4.28;;;;;;;17.40;73.79;97603.75;5032038;28;20025;-59
2021/07/30 05:46:05;;;;;;;7.45;3.75;;;;;;;17.40;72.27;97609.03;5032416;28;20037;-60
2021/07/30 05:48:30;;;;;;;6.95;4.28;;;;;;;17.84;71.02;97607.44;5031164;28;20032;-60
2021/07/30 05:50:56;;;;;;;8.07;4.25;;;;;;;17.89;73.24;97609.78;5032567;28;20033;-60
2021/07/30 05:53:21;;;;;;;10.95;3.92;;;;;;;18.38;71.45;97615.66;5048801;28;20041;-59
2021/07/30 05:55:46;;;;;;;7.40;4.10;;;;;;;21.07;65.90;97605.44;5030266;28;20034;-60
2021/07/30 05:58:12;;;;;;;9.32;4.03;;;;;;;22.85;58.38;97610.00;5030078;28;20032;-58
2021/07/30 06:00:37;;;;;;;6.28;4.07;;;;;;;24.53;55.77;97610.97;5031992;28;20120;-60
2021/07/30 06:03:03;;;;;;;5.90;3.88;;;;;;;25.31;52.36;97604.50;5029780;28;20056;-59
2021/07/30 06:05:28;;;;;;;4.85;3.60;;;;;;;27.90;46.20;97604.78;5028329;28;20393;-61
2021/07/30 06:07:57;;;;;;;6.90;3.45;;;;;;;28.00;45.67;97600.00;5028695;28;20021;-60
2021/07/30 06:10:22;;;;;;;5.60;3.67;;;;;;;28.08;44.56;97605.28;5029071;28;20040;-58
2021/07/30 06:12:48;;;;;;;6.45;4.03;;;;;;;28.86;42.96;97594.97;5042472;28;20036;-58
2021/07/30 06:15:13;;;;;;;9.02;3.75;;;;;;;28.73;42.90;97600.16;5027581;28;20029;-58
2021/07/30 06:17:39;;;;;;;6.97;3.70;;;;;;;28.66;43.69;97596.59;5027466;28;20445;-59
2021/07/30 06:20:06;;;;;;;5.55;3.60;;;;;;;29.99;40.69;97595.22;5026909;28;20022;-59
2021/07/30 06:22:34;;;;;;;7.18;3.35;;;;;;;30.36;40.07;97594.03;5030255;28;20461;-58
2021/07/30 06:24:59;;;;;;;13.57;3.60;;;;;;;29.44;40.44;97586.91;5031935;28;20027;-58
2021/07/30 06:27:25;;;;;;;7.00;3.40;;;;;;;29.71;40.63;97592.50;5029274;28;20083;-58
2021/07/30 06:29:50;;;;;;;6.82;3.22;;;;;;;29.00;41.79;97594.09;5029125;28;20037;-60
2021/07/30 06:32:15;;;;;;;5.93;3.63;;;;;;;31.55;37.93;97585.69;5029133;28;20076;-58
2021/07/30 06:34:41;;;;;;;5.97;3.83;;;;;;;28.25;42.07;97596.06;5030020;28;20325;-60
2021/07/30 06:37:06;;;;;;;9.25;3.90;;;;;;;31.29;38.40;97593.50;5029922;28;20037;-59
2021/07/30 06:39:31;;;;;;;6.82;3.60;;;;;;;32.57;36.59;97591.53;5029706;28;20041;-59
2021/07/30 06:41:57;;;;;;;8.82;3.47;;;;;;;33.43;34.33;97590.28;5030867;28;20552;-60
2021/07/30 06:44:23;;;;;;;7.30;3.67;;;;;;;32.44;36.46;97598.66;5028544;28;20490;-59
2021/07/30 06:46:48;;;;;;;6.28;3.33;;;;;;;33.11;34.75;97595.66;5030159;28;20060;-59
2021/07/30 06:49:14;;;;;;;5.97;3.42;;;;;;;32.92;35.06;97596.59;5029132;28;20128;-60
2021/07/30 06:51:39;;;;;;;8.00;3.70;;;;;;;35.38;31.23;97593.38;5030135;28;20036;-59
2021/07/30 06:54:04;;;;;;;6.40;3.30;;;;;;;34.95;31.90;97588.97;5029250;28;20411;-59
2021/07/30 06:56:30;;;;;;;7.90;3.28;;;;;;;33.05;34.25;97588.44;5028447;28;20057;-60
2021/07/30 06:58:55;;;;;;;6.78;3.90;;;;;;;31.99;36.46;97587.72;5037311;28;20033;-59
2021/07/30 07:01:21;;;;;;;6.15;3.25;;;;;;;33.32;34.74;97596.41;5029507;28;20061;-59
2021/07/30 07:03:46;;;;;;;6.40;3.50;;;;;;;33.36;34.45;97593.06;5029416;28;20036;-59
2021/07/30 07:06:14;;;;;;;8.02;3.67;;;;;;;32.39;35.46;97587.66;5028768;28;20481;-59
2021/07/30 07:08:40;;;;;;;9.30;3.80;;;;;;;31.03;37.51;97585.41;5028264;28;20025;-60
2021/07/30 07:11:05;;;;;;;8.20;4.20;;;;;;;34.09;33.24;97582.66;5028458;28;20485;-58
2021/07/30 07:13:30;;;;;;;6.35;3.80;;;;;;;35.15;31.90;97575.16;5029225;28;20275;-60
2021/07/30 07:15:56;;;;;;;6.10;3.58;;;;;;;32.14;36.25;97567.81;5028904;28;20160;-59
2021/07/30 07:18:21;;;;;;;6.13;4.00;;;;;;;34.49;32.62;97576.84;5028658;28;20060;-60
2021/07/30 07:20:47;;;;;;;8.10;4.33;;;;;;;35.31;32.43;97574.53;5027373;28;20060;-59
2021/07/30 07:23:12;;;;;;;9.35;4.13;;;;;;;32.92;34.97;97575.00;5028138;28;20971;-59
2021/07/30 07:25:38;;;;;;;7.03;3.90;;;;;;;32.85;34.57;97569.66;5027753;28;20034;-60
2021/07/30 07:28:04;;;;;;;8.68;4.05;;;;;;;33.15;35.38;97569.91;5026554;28;20029;-59
2021/07/30 07:30:29;;;;;;;8.93;3.88;;;;;;;35.19;32.65;97562.81;5030584;28;20147;-60
2021/07/30 07:32:54;;;;;;;8.60;4.70;;;;;;;34.90;32.17;97564.44;5028203;28;20023;-60
2021/07/30 07:35:20;;;;;;;7.97;4.30;;;;;;;33.59;34.17;97565.41;5027987;28;20670;-60
2021/07/30 07:37:45;;;;;;;6.27;3.93;;;;;;;35.57;32.75;97568.88;5029215;28;20271;-60
2021/07/30 07:40:10;;;;;;;5.33;3.60;;;;;;;34.74;32.25;97553.22;5027294;28;20355;-60
2021/07/30 07:42:36;;;;;;;11.65;3.72;;;;;;;35.87;30.79;97558.78;5034118;28;20263;-59
2021/07/30 07:45:02;;;;;;;5.03;2.92;;;;;;;33.34;31.35;97559.16;5033134;28;20033;-60
2021/07/30 07:47:28;;;;;;;4.35;2.80;;;;;;;32.67;31.79;97556.84;5032268;28;20056;-59
2021/07/30 07:49:53;;;;;;;5.55;2.88;;;;;;;36.23;28.06;97551.47;5032930;28;20026;-60
2021/07/30 07:52:18;;;;;;;5.07;2.80;;;;;;;35.28;29.29;97545.16;5032406;28;20441;-60
2021/07/30 07:54:44;;;;;;;7.07;2.75;;;;;;;34.72;30.77;97549.91;5030430;28;20028;-60
2021/07/30 07:57:09;;;;;;;6.10;2.80;;;;;;;34.82;28.98;97543.13;5032871;28;20051;-61
2021/07/30 07:59:36;;;;;;;8.52;2.60;;;;;;;34.45;30.47;97545.88;5033423;28;20021;-60
2021/07/30 08:02:05;;;;;;;4.30;2.72;;;;;;;35.65;28.13;97544.13;5032791;28;20263;-60
2021/07/30 08:04:30;;;;;;;7.32;2.60;;;;;;;34.82;28.39;97535.00;5032275;28;20638;-59
2021/07/30 08:06:56;;;;;;;4.07;2.38;;;;;;;35.77;28.46;97542.28;5028261;28;20645;-59
2021/07/30 08:09:21;;;;;;;5.50;2.45;;;;;;;36.22;28.19;97541.66;5034943;28;20039;-61
2021/07/30 08:11:46;;;;;;;4.83;2.60;;;;;;;36.84;27.09;97541.03;5031241;28;20045;-61
2021/07/30 08:14:12;;;;;;;5.53;2.47;;;;;;;36.52;27.49;97546.06;5033717;28;20268;-60
2021/07/30 08:16:37;;;;;;;4.60;2.50;;;;;;;36.45;27.51;97539.97;5031463;28;20575;-60
2021/07/30 08:19:03;;;;;;;4.37;2.50;;;;;;;34.46;29.23;97537.50;5034389;28;20263;-62
2021/07/30 08:21:30;;;;;;;6.95;2.45;;;;;;;35.82;26.71;97534.25;5031916;28;20283;-60
2021/07/30 08:23:55;;;;;;;5.57;2.55;;;;;;;35.88;26.73;97536.03;5031324;28;20502;-62
2021/07/30 08:26:21;;;;;;;5.93;2.70;;;;;;;35.72;27.96;97527.78;5031597;28;20084;-63
2021/07/30 08:28:46;;;;;;;7.77;2.63;;;;;;;34.98;29.16;97537.06;5032571;28;20367;-60
2021/07/30 08:31:11;;;;;;;5.10;2.63;;;;;;;34.46;29.39;97542.09;5030391;28;20736;-60
2021/07/30 08:33:37;;;;;;;4.93;2.53;;;;;;;32.82;30.71;97537.66;5030175;28;20259;-60
2021/07/30 08:36:05;;;;;;;5.28;2.50;;;;;;;33.48;30.42;97530.97;5032174;28;20311;-61
2021/07/30 08:38:30;;;;;;;5.07;2.60;;;;;;;34.26;29.31;97529.63;5031189;28;20029;-61
2021/07/30 08:40:56;;;;;;;4.75;2.42;;;;;;;34.38;29.16;97525.09;5031344;28;20388;-60
2021/07/30 08:43:21;;;;;;;3.85;2.53;;;;;;;34.09;30.24;97521.25;5031073;28;20056;-60
2021/07/30 08:45:50;;;;;;;5.93;2.60;;;;;;;34.02;30.44;97525.09;5031961;28;20033;-62
2021/07/30 08:48:16;;;;;;;4.35;2.40;;;;;;;33.79;30.75;97527.41;5032378;28;20033;-61
2021/07/30 08:50:42;;;;;;;4.68;2.60;;;;;;;33.78;30.56;97519.50;5029767;28;20098;-60
2021/07/30 08:53:09;;;;;;;5.43;2.70;;;;;;;32.83;31.30;97523.94;5029451;28;20099;-61
2021/07/30 08:55:34;;;;;;;5.20;2.70;;;;;;;37.18;26.35;97524.78;5032212;28;20034;-61
2021/07/30 08:58:00;;;;;;;4.07;2.50;;;;;;;36.41;26.73;97519.78;5032197;28;20035;-60
2021/07/30 09:00:25;;;;;;;5.72;2.97;;;;;;;35.82;27.36;97519.88;5029507;28;20042;-61
2021/07/30 09:02:53;;;;;;;3.92;2.53;;;;;;;35.66;28.40;97511.34;5032211;28;20276;-60
2021/07/30 09:05:32;;;;;;;4.85;3.30;;;;;;;35.01;29.32;97505.94;5030534;28;20715;-61
2021/07/30 09:08:05;;;;;;;5.70;2.75;;;;;;;35.37;28.96;97510.41;5029023;28;20020;-62
2021/07/30 09:10:42;;;;;;;5.13;2.72;;;;;;;33.88;30.07;97513.59;5031886;28;20117;-62
2021/07/30 09:13:23;;;;;;;5.53;3.00;;;;;;;33.41;30.48;97511.28;5031864;28;20144;-62
2021/07/30 09:16:08;;;;;;;4.22;2.75;;;;;;;33.39;30.76;97507.97;5030078;28;20104;-60
2021/07/30 09:18:42;;;;;;;3.60;2.60;;;;;;;33.68;30.10;97508.38;5031109;28;20017;-63
2021/07/30 09:21:33;;;;;;;4.13;2.70;;;;;;;33.53;31.25;97501.41;5030965;28;20415;-61
2021/07/30 09:24:05;;;;;;;;;;;;;;;33.54;30.16;97497.63;5030886;28;20108;-60
2021/07/30 09:26:47;;;;;;;6.30;3.13;;;;;;;32.91;31.45;97503.13;5033736;28;19948;-61
2021/07/30 09:29:19;;;;;;;6.18;2.95;;;;;;;32.68;31.73;97485.63;5032318;28;20079;-60
2021/07/30 09:31:50;;;;;;;5.85;2.85;;;;;;;33.38;31.55;97482.84;5029637;28;20052;-60
2021/07/30 09:34:28;;;;;;;7.90;3.17;;;;;;;33.17;31.70;97481.34;5029694;28;20554;-61
2021/07/30 09:36:57;;;;;;;6.18;3.20;;;;;;;33.32;31.82;97480.19;5026938;28;20049;-61
2021/07/30 09:39:42;;;;;;;4.70;2.78;;;;;;;33.42;31.58;97484.03;5028508;28;20148;-61
2021/07/30 09:42:11;;;;;;;5.68;3.20;;;;;;;32.57;31.68;97486.25;5030333;28;20154;-60
2021/07/30 09:45:02;;;;;;;4.47;2.83;;;;;;;33.41;32.67;97473.44;5032114;28;20032;-62
2021/07/30 09:47:29;;;;;;;5.43;3.43;;;;;;;32.17;33.97;97470.28;5028787;28;20038;-62
2021/07/30 09:50:04;;;;;;;4.82;2.90;;;;;;;32.13;33.35;97461.78;5028195;28;20282;-62
2021/07/30 09:52:33;;;;;;;7.15;3.28;;;;;;;33.25;31.46;97457.78;5031897;28;20106;-61
2021/07/30 09:55:03;;;;;;;5.95;3.33;;;;;;;31.51;32.65;97461.31;5029046;28;20079;-62
2021/07/30 09:57:31;;;;;;;5.20;3.20;;;;;;;32.04;32.47;97452.28;5031264;28;20745;-61
2021/07/30 09:59:58;;;;;;;4.88;3.40;;;;;;;32.92;31.07;97450.75;5030577;28;20021;-62
2021/07/30 10:02:29;;;;;;;4.75;3.40;;;;;;;32.22;31.76;97446.16;5029618;28;20043;-61
2021/07/30 10:04:55;;;;;;;5.25;3.10;;;;;;;34.02;30.11;97446.63;5032855;28;20024;-62
2021/07/30 10:07:23;;;;;;;4.80;3.10;;;;;;;32.77;33.17;97449.22;5028412;28;20041;-61
2021/07/30 10:10:13;;;;;;;5.30;3.42;;;;;;;31.29;33.11;97442.66;5028703;28;20029;-61
2021/07/30 10:12:42;;;;;;;9.20;3.30;;;;;;;33.21;31.62;97443.91;5029221;28;20199;-61
2021/07/30 10:15:09;;;;;;;5.30;3.20;;;;;;;32.58;31.85;97439.38;5030752;28;20116;-60
2021/07/30 10:17:36;;;;;;;4.50;3.13;;;;;;;32.14;32.63;97435.63;5032298;28;20147;-61
2021/07/30 10:20:06;;;;;;;7.90;3.47;;;;;;;32.27;32.89;97428.28;5029230;28;20794;-61
2021/07/30 10:23:03;;;;;;;4.80;3.53;;;;;;;31.03;34.33;97419.25;5031039;28;20075;-62
2021/07/30 10:25:34;;;;;;;5.95;3.20;;;;;;;32.51;32.33;97433.16;5026757;28;20082;-60
2021/07/30 10:28:01;;;;;;;;;;;;;;;33.43;29.92;97430.81;5031939;28;20021;-60
2021/07/30 10:30:34;;;;;;;4.82;3.33;;;;;;;32.29;31.05;97419.97;5028973;28;19928;-62
2021/07/30 10:33:01;;;;;;;5.65;3.50;;;;;;;33.66;30.22;97418.56;5028474;28;20033;-61
2021/07/30 10:35:27;;;;;;;4.15;3.10;;;;;;;32.54;31.18;97401.16;5028475;28;20037;-62
2021/07/30 10:38:16;;;;;;;4.87;3.30;;;;;;;32.93;31.98;97407.31;5029572;28;20033;-61
2021/07/30 10:40:43;;;;;;;5.03;3.00;;;;;;;33.70;30.51;97398.94;5027334;28;20318;-59
2021/07/30 10:43:10;;;;;;;5.18;3.35;;;;;;;31.86;31.41;97409.78;5029027;28;20029;-59
2021/07/30 10:46:07;;;;;;;4.50;3.25;;;;;;;32.64;31.45;97398.00;5030099;28;20479;-60
2021/07/30 10:48:33;;;;;;;4.47;3.15;;;;;;;32.54;31.58;97392.22;5030815;28;20025;-59
2021/07/30 10:51:04;;;;;;;8.07;3.60;;;;;;;31.96;31.35;97398.53;5026530;28;20056;-60
2021/07/30 10:53:36;;;;;;;5.38;3.28;;;;;;;30.43;32.82;97388.75;5027198;28;20503;-59
2021/07/30 10:56:17;;;;;;;5.30;3.30;;;;;;;30.87;33.03;97392.72;5029247;28;20046;-61
2021/07/30 10:58:45;;;;;;;7.93;3.40;;;;;;;31.99;31.52;97388.16;5029397;28;20044;-61
2021/07/30 11:01:13;;;;;;;5.85;3.30;;;;;;;31.53;33.14;97383.75;5027804;28;20128;-60
2021/07/30 11:03:51;;;;;;;5.05;3.50;;;;;;;32.81;31.66;97385.63;5027399;28;20029;-60
2021/07/30 11:06:21;;;;;;;6.20;3.28;;;;;;;32.87;32.27;97380.38;5027886;28;20040;-61
2021/07/30 11:08:58;;;;;;;4.85;3.30;;;;;;;31.73;32.45;97374.78;5028373;28;20558;-59
2021/07/30 11:11:50;;;;;;;4.82;3.13;;;;;;;32.38;31.96;97372.00;5028744;28;20041;-60
2021/07/30 11:14:28;;;;;;;5.10;3.08;;;;;;;32.22;33.17;97370.63;5030229;28;20044;-60
2021/07/30 11:16:55;;;;;;;6.35;3.28;;;;;;;31.85;32.00;97378.47;5028643;28;20065;-60
2021/07/30 11:19:28;;;;;;;7.00;3.20;;;;;;;33.07;30.57;97367.53;5028881;28;20490;-61
2021/07/30 11:21:56;;;;;;;6.30;3.10;;;;;;;32.70;29.98;97359.34;5029825;28;20091;-60
2021/07/30 11:24:22;;;;;;;4.10;3.15;;;;;;;32.10;32.03;97361.59;5028737;28;20120;-60
2021/07/30 11:26:48;;;;;;;4.70;3.15;;;;;;;32.71;31.61;97347.47;5029725;28;20446;-61
2021/07/30 11:29:16;;;;;;;5.55;3.10;;;;;;;32.33;31.46;97351.06;5029659;28;20546;-60
2021/07/30 11:31:52;;;;;;;4.97;3.47;;;;;;;31.25;32.36;97363.28;5027987;28;20049;-60
2021/07/30 11:34:18;;;;;;;5.28;3.50;;;;;;;31.10;32.62;97362.69;5028967;28;20138;-61